Time;durP1;ratioP1;P1;durP2;ratioP2;P2;SDS_P1;SDS_P2;PMS_P1;PMS_P2;Temp;Humidity;BMP_temperature;BMP_pressure;BME280_temperature;BME280_humidity;BME280_pressure;Samples;Min_cycle;Max_cycle;Signal;HPM_P1;HPM_P2
2022/07/22 00:01:02;;;;;;;14.27;3.42;;;15.70;99.90;;;;;;5032648;28;20049;-58
2022/07/22 00:03:28;;;;;;;11.88;2.80;;;15.70;99.90;;;;;;5033760;28;20052;-57
2022/07/22 00:05:54;;;;;;;11.98;2.90;;;15.80;99.90;;;;;;5033558;28;20087;-58
2022/07/22 00:08:19;;;;;;;12.23;3.28;;;15.80;99.90;;;;;;5033703;28;20044;-58
2022/07/22 00:10:45;;;;;;;11.35;3.85;;;15.70;99.90;;;;;;5033774;28;20129;-57
2022/07/22 00:13:11;;;;;;;14.18;3.20;;;15.80;99.90;;;;;;5033637;28;20073;-57
2022/07/22 00:15:37;;;;;;;10.93;2.63;;;15.80;99.90;;;;;;5033687;28;20037;-59
2022/07/22 00:18:03;;;;;;;11.20;3.67;;;15.80;99.90;;;;;;5033424;28;20041;-59
2022/07/22 00:20:29;;;;;;;11.43;2.78;;;15.70;99.90;;;;;;5056222;28;20039;-58
2022/07/22 00:22:54;;;;;;;10.18;2.65;;;15.70;99.90;;;;;;5068863;28;20144;-58
2022/07/22 00:25:24;;;;;;;12.82;3.20;;;15.70;99.90;;;;;;5053081;28;20056;-57
2022/07/22 00:27:49;;;;;;;9.27;2.78;;;15.70;99.90;;;;;;5053427;28;20123;-58
2022/07/22 00:30:15;;;;;;;10.52;2.67;;;15.70;99.90;;;;;;5053197;28;20183;-58
2022/07/22 00:32:41;;;;;;;12.55;3.00;;;15.70;99.90;;;;;;5052808;28;20077;-58
2022/07/22 00:35:07;;;;;;;9.57;2.70;;;15.70;99.90;;;;;;5052587;28;20393;-58
2022/07/22 00:37:33;;;;;;;10.18;2.25;;;15.60;99.90;;;;;;5053112;28;20052;-58
2022/07/22 00:39:58;;;;;;;13.05;3.20;;;15.60;99.90;;;;;;5051792;28;20040;-58
2022/07/22 00:42:24;;;;;;;12.32;2.58;;;15.60;99.90;;;;;;5053192;28;20128;-58
2022/07/22 00:44:50;;;;;;;11.73;3.13;;;15.60;99.90;;;;;;5052961;28;20045;-58
2022/07/22 00:47:15;;;;;;;10.80;2.63;;;15.60;99.90;;;;;;5052908;28;20048;-58
2022/07/22 00:49:41;;;;;;;9.57;2.40;;;15.60;99.90;;;;;;5052932;28;20041;-58
2022/07/22 00:52:07;;;;;;;15.20;2.72;;;15.60;99.90;;;;;;5052856;28;20424;-58
2022/07/22 00:54:33;;;;;;;13.85;3.13;;;15.60;99.90;;;;;;5052966;28;20069;-58
2022/07/22 00:56:59;;;;;;;7.03;2.38;;;15.60;99.90;;;;;;5052945;28;20037;-58
2022/07/22 00:59:25;;;;;;;12.45;3.22;;;15.60;99.90;;;;;;5052581;28;20440;-58
2022/07/22 01:01:51;;;;;;;14.05;2.67;;;15.60;99.90;;;;;;5052949;28;20059;-58
2022/07/22 01:04:17;;;;;;;17.83;3.10;;;15.60;99.90;;;;;;5067887;28;20048;-58
2022/07/22 01:06:44;;;;;;;11.90;2.83;;;15.70;99.90;;;;;;5052551;28;20037;-58
2022/07/22 01:09:11;;;;;;;10.00;2.13;;;15.60;99.90;;;;;;5052407;28;20076;-58
2022/07/22 01:11:37;;;;;;;9.77;2.22;;;15.60;99.90;;;;;;5052431;28;20124;-57
2022/07/22 01:14:02;;;;;;;10.45;3.13;;;15.60;99.90;;;;;;5052275;28;20124;-57
2022/07/22 01:16:28;;;;;;;9.10;2.40;;;15.60;99.90;;;;;;5052462;28;20037;-58
2022/07/22 01:18:54;;;;;;;10.32;2.10;;;15.60;99.90;;;;;;5052253;28;20091;-58
2022/07/22 01:21:20;;;;;;;14.13;2.70;;;15.60;99.90;;;;;;5038015;28;20069;-58
2022/07/22 01:23:47;;;;;;;11.90;2.22;;;15.60;99.90;;;;;;5032509;28;20045;-57
2022/07/22 01:26:13;;;;;;;10.15;2.42;;;15.60;99.90;;;;;;5047938;28;20045;-57
2022/07/22 01:28:40;;;;;;;9.48;2.50;;;15.70;99.90;;;;;;5032242;28;20041;-57
2022/07/22 01:31:06;;;;;;;7.32;2.13;;;15.60;99.90;;;;;;5032019;28;20544;-57
2022/07/22 01:33:32;;;;;;;10.02;2.33;;;15.50;99.90;;;;;;5032436;28;20067;-57
2022/07/22 01:35:57;;;;;;;12.45;2.75;;;15.50;99.90;;;;;;5032123;28;20390;-57
2022/07/22 01:38:23;;;;;;;10.60;2.00;;;15.50;99.90;;;;;;5032434;28;20041;-57
2022/07/22 01:40:49;;;;;;;12.35;2.25;;;15.50;99.90;;;;;;5032426;28;20107;-57
2022/07/22 01:43:17;;;;;;;9.55;2.35;;;15.50;99.90;;;;;;5032342;28;20033;-58
2022/07/22 01:45:44;;;;;;;9.77;2.15;;;15.50;99.90;;;;;;5031892;28;20041;-58
2022/07/22 01:48:10;;;;;;;13.40;2.42;;;15.50;99.90;;;;;;5032287;28;20045;-57
2022/07/22 01:50:36;;;;;;;10.77;2.20;;;15.60;99.90;;;;;;5031912;28;20049;-57
2022/07/22 01:53:02;;;;;;;9.75;2.85;;;15.50;99.90;;;;;;5032315;28;20037;-57
2022/07/22 01:55:28;;;;;;;12.75;3.05;;;15.60;99.90;;;;;;5031729;28;20042;-57
2022/07/22 01:57:53;;;;;;;13.70;2.38;;;15.50;99.90;;;;;;5047418;28;20072;-58
2022/07/22 02:00:19;;;;;;;7.80;2.08;;;15.60;99.90;;;;;;5030616;28;20042;-56
2022/07/22 02:02:45;;;;;;;9.80;2.20;;;15.60;99.90;;;;;;5032255;28;20045;-57
2022/07/22 02:05:12;;;;;;;6.43;1.83;;;15.60;99.90;;;;;;5032166;28;20069;-57
2022/07/22 02:07:37;;;;;;;10.73;2.22;;;15.50;99.90;;;;;;5032022;28;20444;-57
2022/07/22 02:10:04;;;;;;;10.65;2.40;;;15.50;99.90;;;;;;5032034;28;20041;-57
2022/07/22 02:12:30;;;;;;;7.47;1.80;;;15.50;99.90;;;;;;5031760;28;20049;-58
2022/07/22 02:14:56;;;;;;;7.75;1.67;;;15.50;99.90;;;;;;5031957;28;20052;-57
2022/07/22 02:17:21;;;;;;;6.45;2.20;;;15.40;99.90;;;;;;5032108;28;20076;-57
2022/07/22 02:19:47;;;;;;;5.60;2.03;;;15.40;99.90;;;;;;5033597;28;20037;-58
2022/07/22 02:22:13;;;;;;;10.30;1.90;;;15.40;99.90;;;;;;5067361;28;20037;-57
2022/07/22 02:24:38;;;;;;;8.05;1.52;;;15.40;99.90;;;;;;5051878;28;20094;-57
2022/07/22 02:27:04;;;;;;;6.30;1.88;;;15.40;99.90;;;;;;5051900;28;20041;-57
2022/07/22 02:29:31;;;;;;;8.25;1.65;;;15.40;99.90;;;;;;5051645;28;20538;-57
2022/07/22 02:31:56;;;;;;;7.90;1.90;;;15.40;99.90;;;;;;5051487;28;20096;-56
2022/07/22 02:34:22;;;;;;;8.50;1.92;;;15.40;99.90;;;;;;5051787;28;20083;-57
2022/07/22 02:36:48;;;;;;;7.05;1.95;;;15.40;99.90;;;;;;5051731;28;20044;-57
2022/07/22 02:39:13;;;;;;;6.97;2.22;;;15.30;99.90;;;;;;5051626;28;20045;-57
2022/07/22 02:41:39;;;;;;;7.85;2.30;;;15.40;99.90;;;;;;5051404;28;20367;-57
2022/07/22 02:44:05;;;;;;;10.45;2.35;;;15.40;99.90;;;;;;5051337;28;20082;-57
2022/07/22 02:46:31;;;;;;;7.65;1.92;;;15.40;99.90;;;;;;5066829;28;20424;-57
2022/07/22 02:48:57;;;;;;;7.70;2.25;;;15.40;99.90;;;;;;5051374;28;20041;-57
2022/07/22 02:51:23;;;;;;;8.43;1.85;;;15.40;99.90;;;;;;5050292;28;20036;-57
2022/07/22 02:53:49;;;;;;;8.23;1.70;;;15.40;99.90;;;;;;5051665;28;20047;-57
2022/07/22 02:56:15;;;;;;;11.73;2.35;;;15.30;99.90;;;;;;5051393;28;20380;-57
2022/07/22 02:58:41;;;;;;;6.70;1.70;;;15.40;99.90;;;;;;5070377;28;20040;-57
2022/07/22 03:01:06;;;;;;;7.75;1.80;;;15.40;99.90;;;;;;5054984;28;20041;-57
2022/07/22 03:03:32;;;;;;;6.10;1.83;;;15.40;99.90;;;;;;5055146;28;20052;-57
2022/07/22 03:05:58;;;;;;;6.57;2.53;;;15.40;99.90;;;;;;5070210;28;20048;-57
2022/07/22 03:08:25;;;;;;;8.75;2.17;;;15.40;99.90;;;;;;5054856;28;20132;-58
2022/07/22 03:10:51;;;;;;;8.32;1.63;;;15.40;99.90;;;;;;5054351;28;20029;-58
2022/07/22 03:13:17;;;;;;;6.00;1.90;;;15.30;99.90;;;;;;5054745;28;20037;-57
2022/07/22 03:15:42;;;;;;;6.10;1.80;;;15.40;99.90;;;;;;5054388;28;20033;-59
2022/07/22 03:18:08;;;;;;;7.55;1.75;;;15.40;99.90;;;;;;5054658;28;20041;-60
2022/07/22 03:20:34;;;;;;;9.50;2.05;;;15.30;99.90;;;;;;5046092;28;20046;-58
2022/07/22 03:23:00;;;;;;;8.85;1.88;;;15.40;99.90;;;;;;5034778;28;20037;-57
2022/07/22 03:25:25;;;;;;;10.82;2.40;;;15.40;99.90;;;;;;5034409;28;20492;-57
2022/07/22 03:27:51;;;;;;;8.57;2.03;;;15.40;99.90;;;;;;5033174;28;20125;-58
2022/07/22 03:30:17;;;;;;;11.77;2.22;;;15.30;99.90;;;;;;5034202;28;20081;-57
2022/07/22 03:32:46;;;;;;;10.00;2.40;;;15.30;99.90;;;;;;5049579;28;20474;-58
2022/07/22 03:35:13;;;;;;;6.88;2.13;;;15.30;99.90;;;;;;5034470;28;20072;-57
2022/07/22 03:37:39;;;;;;;11.43;2.40;;;15.30;99.90;;;;;;5034584;28;20068;-57
2022/07/22 03:40:05;;;;;;;8.50;2.05;;;15.30;99.90;;;;;;5034212;28;20041;-58
2022/07/22 03:42:31;;;;;;;11.07;2.83;;;15.30;99.90;;;;;;5034289;28;20057;-57
2022/07/22 03:44:57;;;;;;;10.38;2.47;;;15.30;99.90;;;;;;5033047;28;20048;-58
2022/07/22 03:47:22;;;;;;;9.02;2.10;;;15.30;99.90;;;;;;5049668;28;20106;-57
2022/07/22 03:49:49;;;;;;;9.82;2.05;;;15.30;99.90;;;;;;5034263;28;20041;-57
2022/07/22 03:52:15;;;;;;;8.00;1.92;;;15.30;99.90;;;;;;5034187;28;20046;-57
2022/07/22 03:54:42;;;;;;;9.52;1.90;;;15.30;99.90;;;;;;5034054;28;20038;-57
2022/07/22 03:57:08;;;;;;;8.65;1.92;;;15.20;99.90;;;;;;5034139;28;20041;-57
2022/07/22 03:59:34;;;;;;;10.52;1.90;;;15.30;99.90;;;;;;5034122;28;20468;-58
2022/07/22 04:02:00;;;;;;;9.20;2.00;;;15.30;99.90;;;;;;5034111;28;20043;-57
2022/07/22 04:04:25;;;;;;;9.13;1.80;;;15.30;99.90;;;;;;5033907;28;20501;-57
2022/07/22 04:06:51;;;;;;;8.88;2.13;;;15.30;99.90;;;;;;5033909;28;20053;-57
2022/07/22 04:09:18;;;;;;;8.70;1.65;;;15.30;99.90;;;;;;5032108;28;20060;-57
2022/07/22 04:11:43;;;;;;;8.45;2.00;;;15.40;99.90;;;;;;5033727;28;20041;-57
2022/07/22 04:14:09;;;;;;;6.55;1.98;;;15.40;99.90;;;;;;5033820;28;20039;-57
2022/07/22 04:16:35;;;;;;;7.50;2.08;;;15.40;99.90;;;;;;5033551;28;20466;-57
2022/07/22 04:19:01;;;;;;;9.65;2.13;;;15.40;99.90;;;;;;5033589;28;20041;-58
2022/07/22 04:21:27;;;;;;;6.38;2.45;;;15.30;99.90;;;;;;5049204;28;20083;-57
2022/07/22 04:23:53;;;;;;;6.68;1.80;;;15.30;99.90;;;;;;5053286;28;20073;-57
2022/07/22 04:26:19;;;;;;;6.43;1.80;;;15.30;99.90;;;;;;5053582;28;20100;-57
2022/07/22 04:28:45;;;;;;;8.60;1.80;;;15.40;99.90;;;;;;5053497;28;20041;-58
2022/07/22 04:31:11;;;;;;;8.77;2.20;;;15.40;99.90;;;;;;5052935;28;20141;-58
2022/07/22 04:33:37;;;;;;;8.05;1.83;;;15.40;99.90;;;;;;5053326;28;20040;-57
2022/07/22 04:36:03;;;;;;;9.38;1.83;;;15.30;99.90;;;;;;5053300;28;20040;-57
2022/07/22 04:38:29;;;;;;;9.27;1.70;;;15.30;99.90;;;;;;5053334;28;20072;-58
2022/07/22 04:40:55;;;;;;;8.13;2.08;;;15.40;99.90;;;;;;5051580;28;20072;-57
2022/07/22 04:43:21;;;;;;;7.22;2.10;;;15.40;99.90;;;;;;5053151;28;20049;-57
2022/07/22 04:45:46;;;;;;;8.18;2.10;;;15.30;99.90;;;;;;5053055;28;20072;-57
2022/07/22 04:48:12;;;;;;;10.95;2.30;;;15.40;99.90;;;;;;5052882;28;20087;-57
2022/07/22 04:50:38;;;;;;;8.50;2.00;;;15.40;99.90;;;;;;5052596;28;20121;-58
2022/07/22 04:53:03;;;;;;;8.02;1.88;;;15.40;99.90;;;;;;5052860;28;20123;-57
2022/07/22 04:55:29;;;;;;;7.85;1.92;;;15.40;99.90;;;;;;5052572;28;20041;-57
2022/07/22 04:57:55;;;;;;;7.05;1.77;;;15.40;99.90;;;;;;5052573;28;20029;-57
2022/07/22 05:00:21;;;;;;;9.27;2.25;;;15.40;99.90;;;;;;5052505;28;20063;-58
2022/07/22 05:02:47;;;;;;;8.43;1.80;;;15.50;99.90;;;;;;5052541;28;20095;-59
2022/07/22 05:05:12;;;;;;;8.70;2.33;;;15.50;99.90;;;;;;5052465;28;20049;-57
2022/07/22 05:07:38;;;;;;;6.65;2.13;;;15.40;99.90;;;;;;5067845;28;20055;-58
2022/07/22 05:10:04;;;;;;;7.78;1.92;;;15.50;99.90;;;;;;5052778;28;20083;-57
2022/07/22 05:12:30;;;;;;;7.82;2.05;;;15.50;99.90;;;;;;5052600;28;20041;-58
2022/07/22 05:14:56;;;;;;;9.18;1.88;;;15.50;99.90;;;;;;5052316;28;20479;-57
2022/07/22 05:17:21;;;;;;;7.68;1.98;;;15.50;99.90;;;;;;5052430;28;20043;-57
2022/07/22 05:19:47;;;;;;;8.02;1.85;;;15.50;99.90;;;;;;5049610;28;20032;-57
2022/07/22 05:22:13;;;;;;;9.15;2.15;;;15.60;99.90;;;;;;5032281;28;20038;-58
2022/07/22 05:24:38;;;;;;;8.52;1.90;;;15.60;99.90;;;;;;5032524;28;20087;-57
2022/07/22 05:27:04;;;;;;;5.25;1.65;;;15.70;99.90;;;;;;5032521;28;20106;-57
2022/07/22 05:29:30;;;;;;;8.18;2.17;;;15.70;99.90;;;;;;5032423;28;20052;-57
2022/07/22 05:31:56;;;;;;;6.95;1.92;;;15.70;99.90;;;;;;5032295;28;20468;-58
2022/07/22 05:34:22;;;;;;;8.05;1.48;;;15.70;99.90;;;;;;5032193;28;20049;-58
2022/07/22 05:36:48;;;;;;;9.82;1.98;;;15.70;99.90;;;;;;5032366;28;20041;-56
2022/07/22 05:39:14;;;;;;;7.85;1.90;;;15.70;99.90;;;;;;5032197;28;20467;-58
2022/07/22 05:41:39;;;;;;;6.10;1.73;;;15.80;99.90;;;;;;5032438;28;20042;-58
2022/07/22 05:44:06;;;;;;;7.72;1.77;;;15.80;99.90;;;;;;5032355;28;20056;-56
2022/07/22 05:46:31;;;;;;;11.30;2.13;;;15.80;99.90;;;;;;5032426;28;20064;-57
2022/07/22 05:48:57;;;;;;;10.40;2.10;;;15.90;99.90;;;;;;5032104;28;20046;-57
2022/07/22 05:51:23;;;;;;;9.38;2.00;;;16.00;99.90;;;;;;5047311;28;20046;-58
2022/07/22 05:53:49;;;;;;;8.43;1.90;;;16.00;99.90;;;;;;5032003;28;20041;-58
2022/07/22 05:56:15;;;;;;;8.55;1.90;;;16.00;99.90;;;;;;5032189;28;20112;-58
2022/07/22 05:58:42;;;;;;;6.80;1.85;;;16.10;99.90;;;;;;5047468;28;20772;-57
2022/07/22 06:01:12;;;;;;;7.10;2.00;;;15.90;99.90;;;;;;5032038;28;20037;-57
2022/07/22 06:03:38;;;;;;;8.75;1.90;;;16.10;99.90;;;;;;5030559;28;20057;-57
2022/07/22 06:06:05;;;;;;;8.38;1.85;;;16.20;99.90;;;;;;5031809;28;20037;-58
2022/07/22 06:08:31;;;;;;;5.95;1.45;;;16.20;99.90;;;;;;5031734;28;20076;-58
2022/07/22 06:10:59;;;;;;;8.65;2.00;;;16.20;99.90;;;;;;5031534;28;20543;-57
2022/07/22 06:13:25;;;;;;;7.93;1.55;;;16.20;99.90;;;;;;5030789;28;20371;-58
2022/07/22 06:15:51;;;;;;;8.98;1.88;;;16.10;99.90;;;;;;5031590;28;20470;-58
2022/07/22 06:18:17;;;;;;;7.18;1.70;;;16.10;99.90;;;;;;5031823;28;20091;-57
2022/07/22 06:20:43;;;;;;;6.43;1.35;;;16.10;99.90;;;;;;5041469;28;20037;-57
2022/07/22 06:23:08;;;;;;;6.15;2.00;;;16.20;99.90;;;;;;5051468;28;20076;-58
2022/07/22 06:25:34;;;;;;;9.60;1.73;;;16.10;99.90;;;;;;5051865;28;20080;-59
2022/07/22 06:28:00;;;;;;;6.50;1.73;;;16.10;99.90;;;;;;5051680;28;20443;-58
2022/07/22 06:30:28;;;;;;;6.47;1.75;;;16.20;99.90;;;;;;5050570;28;20049;-58
2022/07/22 06:32:54;;;;;;;6.57;1.50;;;16.30;99.90;;;;;;5055328;28;20044;-59
2022/07/22 06:35:20;;;;;;;4.65;1.45;;;16.30;99.90;;;;;;5055642;28;20033;-58
2022/07/22 06:37:46;;;;;;;7.50;1.38;;;16.40;99.90;;;;;;5054148;28;20421;-58
2022/07/22 06:40:12;;;;;;;7.28;1.42;;;16.40;99.90;;;;;;5055601;28;20045;-59
2022/07/22 06:42:39;;;;;;;7.20;2.00;;;16.40;99.90;;;;;;5055288;28;20041;-58
2022/07/22 06:45:05;;;;;;;5.28;1.63;;;16.50;99.90;;;;;;5053787;28;20052;-58
2022/07/22 06:47:31;;;;;;;5.90;1.40;;;16.30;99.90;;;;;;5055410;28;20243;-58
2022/07/22 06:49:57;;;;;;;6.00;1.30;;;16.30;99.90;;;;;;5055031;28;20485;-59
2022/07/22 06:52:23;;;;;;;5.43;1.48;;;16.40;99.90;;;;;;5055210;28;20044;-58
2022/07/22 06:54:49;;;;;;;5.40;1.60;;;16.50;99.90;;;;;;5054963;28;20080;-58
2022/07/22 06:57:15;;;;;;;6.25;1.50;;;16.50;99.90;;;;;;5055108;28;20537;-58
2022/07/22 06:59:40;;;;;;;5.65;1.38;;;16.50;99.90;;;;;;5054839;28;20040;-59
2022/07/22 07:02:06;;;;;;;5.57;1.38;;;16.40;99.90;;;;;;5055089;28;20048;-58
2022/07/22 07:04:32;;;;;;;5.97;1.38;;;16.50;99.90;;;;;;5055079;28;20098;-59
2022/07/22 07:06:58;;;;;;;6.63;1.80;;;16.70;99.90;;;;;;5054939;28;20115;-58
2022/07/22 07:09:23;;;;;;;6.55;1.50;;;16.70;99.90;;;;;;5054971;28;20775;-58
2022/07/22 07:11:49;;;;;;;7.60;1.40;;;16.80;99.90;;;;;;5054618;28;20106;-58
2022/07/22 07:14:15;;;;;;;6.32;1.60;;;16.70;99.90;;;;;;5054773;28;20044;-58
2022/07/22 07:16:41;;;;;;;6.80;1.45;;;16.60;99.90;;;;;;5054881;28;20421;-58
2022/07/22 07:19:06;;;;;;;7.47;1.42;;;16.50;99.90;;;;;;5054801;28;20045;-58
2022/07/22 07:21:32;;;;;;;6.43;1.45;;;16.60;99.90;;;;;;5053368;28;20041;-58
2022/07/22 07:23:58;;;;;;;6.03;1.45;;;16.70;99.90;;;;;;5033104;28;20073;-58
2022/07/22 07:26:24;;;;;;;6.90;1.38;;;16.70;99.90;;;;;;5034543;28;20625;-58
2022/07/22 07:28:49;;;;;;;6.78;1.60;;;16.70;99.90;;;;;;5034638;28;20052;-58
2022/07/22 07:31:16;;;;;;;4.40;1.23;;;16.80;99.90;;;;;;5034367;28;20057;-58
2022/07/22 07:33:42;;;;;;;4.82;1.13;;;16.70;99.90;;;;;;5034325;28;20041;-59
2022/07/22 07:36:08;;;;;;;5.40;1.30;;;16.80;99.90;;;;;;5034585;28;20037;-59
2022/07/22 07:38:34;;;;;;;6.53;1.23;;;16.90;99.90;;;;;;5034264;28;20048;-58
2022/07/22 07:40:59;;;;;;;4.40;1.30;;;16.90;99.90;;;;;;5033092;28;20041;-58
2022/07/22 07:43:26;;;;;;;5.93;1.50;;;17.00;99.90;;;;;;5033762;28;20033;-58
2022/07/22 07:45:51;;;;;;;5.68;1.48;;;17.10;99.90;;;;;;5049660;28;20029;-58
2022/07/22 07:48:17;;;;;;;5.03;1.35;;;17.00;99.90;;;;;;5032843;28;20049;-58
2022/07/22 07:50:43;;;;;;;5.07;1.33;;;17.00;99.90;;;;;;5032766;28;20036;-58
2022/07/22 07:53:08;;;;;;;5.63;1.30;;;17.00;99.90;;;;;;5034242;28;20045;-58
2022/07/22 07:55:37;;;;;;;6.20;1.50;;;17.00;99.90;;;;;;5033845;28;20045;-58
2022/07/22 07:58:03;;;;;;;7.25;1.42;;;17.00;99.90;;;;;;5034176;28;20076;-58
2022/07/22 08:00:30;;;;;;;10.43;1.60;;;16.90;99.90;;;;;;5033854;28;20045;-58
2022/07/22 08:02:56;;;;;;;7.50;1.40;;;16.90;99.90;;;;;;5033729;28;20048;-58
2022/07/22 08:05:21;;;;;;;5.95;1.40;;;16.90;99.90;;;;;;5032430;28;20450;-58
2022/07/22 08:07:48;;;;;;;7.35;1.52;;;17.00;99.90;;;;;;5033797;28;20120;-58
2022/07/22 08:10:14;;;;;;;7.95;1.50;;;17.00;99.90;;;;;;5033494;28;20057;-58
2022/07/22 08:12:40;;;;;;;8.40;1.40;;;16.90;99.90;;;;;;5033628;28;20041;-58
2022/07/22 08:15:07;;;;;;;8.15;1.70;;;16.90;99.90;;;;;;5033523;28;20038;-58
2022/07/22 08:17:33;;;;;;;5.93;1.33;;;16.90;99.90;;;;;;5033531;28;20513;-58
2022/07/22 08:19:59;;;;;;;9.25;1.55;;;16.90;99.90;;;;;;5037097;28;20060;-58
2022/07/22 08:22:24;;;;;;;9.80;1.70;;;16.90;99.90;;;;;;5053361;28;20524;-58
2022/07/22 08:24:50;;;;;;;6.63;1.17;;;16.90;99.90;;;;;;5053597;28;20045;-58
2022/07/22 08:27:16;;;;;;;5.80;1.30;;;16.80;99.90;;;;;;5053147;28;20370;-59
2022/07/22 08:29:42;;;;;;;6.03;1.48;;;16.80;99.90;;;;;;5053349;28;20043;-59
2022/07/22 08:32:07;;;;;;;8.25;1.65;;;16.70;99.90;;;;;;5053418;28;20103;-59
2022/07/22 08:34:34;;;;;;;6.72;1.27;;;16.70;99.90;;;;;;5052934;28;20037;-58
2022/07/22 08:37:00;;;;;;;7.25;1.50;;;16.80;99.90;;;;;;5053319;28;20052;-59
2022/07/22 08:39:25;;;;;;;3.75;0.90;;;16.90;99.90;;;;;;5052917;28;20037;-59
2022/07/22 08:41:51;;;;;;;6.40;1.05;;;16.90;99.90;;;;;;5053167;28;20072;-47
2022/07/22 08:44:17;;;;;;;5.93;1.20;;;16.90;99.90;;;;;;5053040;28;20041;-45
2022/07/22 08:46:44;;;;;;;7.47;1.10;;;17.00;99.90;;;;;;5053072;28;20048;-45
2022/07/22 08:49:13;;;;;;;7.25;1.20;;;17.00;99.90;;;;;;5052765;28;20040;-46
2022/07/22 08:51:39;;;;;;;5.15;1.10;;;17.00;99.90;;;;;;5052603;28;20548;-51
2022/07/22 08:54:05;;;;;;;5.05;1.13;;;17.10;99.90;;;;;;5050906;28;20049;-50
2022/07/22 08:56:30;;;;;;;3.20;0.90;;;17.10;99.90;;;;;;5068145;28;20055;-51
2022/07/22 08:58:56;;;;;;;6.88;1.05;;;17.30;99.90;;;;;;5052897;28;20370;-47
2022/07/22 09:01:22;;;;;;;4.53;1.05;;;17.40;99.90;;;;;;5052878;28;20435;-49
2022/07/22 09:03:47;;;;;;;6.07;1.42;;;17.30;99.90;;;;;;5051681;28;20390;-48
2022/07/22 09:06:13;;;;;;;7.30;1.40;;;17.40;99.90;;;;;;5052632;28;20091;-46
2022/07/22 09:09:04;;;;;;;6.38;1.40;;;17.50;99.90;;;;;;5052757;28;20044;-51
2022/07/22 09:11:31;;;;;;;3.17;1.10;;;17.50;99.90;;;;;;5052268;28;20045;-47
2022/07/22 09:14:00;;;;;;;5.25;1.23;;;17.50;99.90;;;;;;5052480;28;20072;-46
2022/07/22 09:16:39;;;;;;;8.07;1.20;;;17.40;99.90;;;;;;5052170;28;20073;-46
2022/07/22 09:19:05;;;;;;;4.97;1.00;;;17.30;99.90;;;;;;5052622;28;20055;-46
2022/07/22 09:21:31;;;;;;;5.05;1.00;;;17.50;99.90;;;;;;5036060;28;20045;-46
2022/07/22 09:23:57;;;;;;;6.57;1.30;;;17.40;99.90;;;;;;5032476;28;20087;-47
2022/07/22 09:26:37;;;;;;;6.93;1.35;;;17.60;99.90;;;;;;5032583;28;20045;-47
2022/07/22 09:29:05;;;;;;;7.20;1.35;;;17.60;99.90;;;;;;5032550;28;20366;-46
2022/07/22 09:31:36;;;;;;;5.00;1.17;;;17.40;99.90;;;;;;5030868;28;20058;-46
2022/07/22 09:34:02;;;;;;;4.75;1.10;;;17.40;99.90;;;;;;5032531;28;20092;-47
2022/07/22 09:36:29;;;;;;;3.72;0.93;;;17.50;99.90;;;;;;5032463;28;20045;-45
2022/07/22 09:38:55;;;;;;;6.13;1.10;;;17.60;99.90;;;;;;5032375;28;20045;-49
2022/07/22 09:41:21;;;;;;;3.75;0.85;;;17.70;99.90;;;;;;5032419;28;20037;-47
2022/07/22 09:43:47;;;;;;;3.97;0.93;;;17.60;99.90;;;;;;5030912;28;20045;-48
2022/07/22 09:46:13;;;;;;;3.78;1.10;;;17.70;99.90;;;;;;5031975;28;20478;-48
2022/07/22 09:48:40;;;;;;;4.70;1.00;;;17.90;99.90;;;;;;5047462;28;20091;-49
2022/07/22 09:51:06;;;;;;;4.95;1.00;;;17.90;99.90;;;;;;5030674;28;20124;-51
2022/07/22 09:53:33;;;;;;;7.35;1.27;;;18.00;99.90;;;;;;5032112;28;20037;-50
2022/07/22 09:56:01;;;;;;;7.88;1.17;;;18.10;99.90;;;;;;5047449;28;20041;-49
2022/07/22 09:58:27;;;;;;;5.88;1.00;;;18.10;99.90;;;;;;5032126;28;20493;-46
2022/07/22 10:00:53;;;;;;;6.35;0.98;;;18.20;99.90;;;;;;5030697;28;20033;-46
2022/07/22 10:03:27;;;;;;;5.38;1.23;;;18.10;99.90;;;;;;5030717;28;20505;-48
2022/07/22 10:05:53;;;;;;;4.22;0.80;;;17.70;99.90;;;;;;5033181;28;20044;-49
2022/07/22 10:08:19;;;;;;;2.63;0.95;;;17.60;99.90;;;;;;5036034;28;20041;-46
2022/07/22 10:10:45;;;;;;;7.53;1.73;;;17.70;99.90;;;;;;5035903;28;20038;-47
2022/07/22 10:13:11;;;;;;;5.45;1.20;;;17.70;99.90;;;;;;5035907;28;20071;-46
2022/07/22 10:15:38;;;;;;;5.95;1.45;;;17.50;99.90;;;;;;5036018;28;20029;-46
2022/07/22 10:18:15;;;;;;;6.20;1.35;;;17.80;99.90;;;;;;5051147;28;20132;-48
2022/07/22 10:20:41;;;;;;;5.38;1.00;;;17.80;99.90;;;;;;5044938;28;20072;-45
2022/07/22 10:23:08;;;;;;;5.68;0.95;;;17.80;99.90;;;;;;5055490;28;20044;-46
2022/07/22 10:25:58;;;;;;;5.40;1.20;;;17.60;99.90;;;;;;5056052;28;20048;-46
2022/07/22 10:28:37;;;;;;;5.72;1.02;;;17.60;99.90;;;;;;5055482;28;20052;-46
2022/07/22 10:31:18;;;;;;;7.03;1.23;;;17.60;99.90;;;;;;5055399;28;20159;-47
2022/07/22 10:33:45;;;;;;;2.33;0.77;;;17.70;99.90;;;;;;5055795;28;20041;-45
2022/07/22 10:36:12;;;;;;;4.63;1.00;;;17.70;99.90;;;;;;5055333;28;20045;-47
2022/07/22 10:38:38;;;;;;;3.65;0.98;;;18.00;99.90;;;;;;5055678;28;20110;-46
2022/07/22 10:41:09;;;;;;;3.75;0.90;;;17.90;99.90;;;;;;5070731;28;20517;-48
2022/07/22 10:43:35;;;;;;;;;;;17.70;99.90;;;;;;5055553;28;20108;-46
2022/07/22 10:46:06;;;;;;;5.28;1.25;;;17.40;99.90;;;;;;5055384;28;20383;-51
2022/07/22 10:48:37;;;;;;;4.50;0.90;;;17.40;99.90;;;;;;5055301;28;20052;-48
2022/07/22 10:51:10;;;;;;;5.10;0.98;;;17.50;99.90;;;;;;5055305;28;20388;-47
2022/07/22 10:53:54;;;;;;;3.05;0.90;;;17.50;99.90;;;;;;5054995;28;20041;-46
2022/07/22 10:56:26;;;;;;;2.13;0.60;;;17.50;99.90;;;;;;5055041;28;20036;-46
2022/07/22 10:58:55;;;;;;;5.93;0.90;;;17.30;99.90;;;;;;5070556;28;20389;-47
2022/07/22 11:01:30;;;;;;;6.70;0.90;;;17.50;99.90;;;;;;5055318;28;20040;-47
2022/07/22 11:04:07;;;;;;;5.55;0.80;;;17.50;99.90;;;;;;5055151;28;20040;-52
2022/07/22 11:06:34;;;;;;;3.58;0.70;;;17.50;99.90;;;;;;5055164;28;20037;-46
2022/07/22 11:09:05;;;;;;;3.67;0.80;;;17.60;99.90;;;;;;5054997;28;20041;-46
2022/07/22 11:11:42;;;;;;;3.15;0.95;;;17.70;99.90;;;;;;5054951;28;20389;-46
2022/07/22 11:14:21;;;;;;;4.82;1.83;;;17.70;99.90;;;;;;5054673;28;20489;-45
2022/07/22 11:16:49;;;;;;;4.10;0.77;;;17.70;99.90;;;;;;5054368;28;20393;-46
2022/07/22 11:19:23;;;;;;;2.90;0.80;;;17.90;99.90;;;;;;5053955;28;20401;-47
2022/07/22 11:21:51;;;;;;;4.95;1.00;;;17.90;99.90;;;;;;5035768;28;20048;-46
2022/07/22 11:24:18;;;;;;;2.35;0.68;;;17.90;99.90;;;;;;5034582;28;20128;-47
2022/07/22 11:26:49;;;;;;;2.60;0.80;;;17.90;99.90;;;;;;5034530;28;20525;-47
2022/07/22 11:29:26;;;;;;;3.78;0.70;;;18.20;99.90;;;;;;5034389;28;20128;-47
2022/07/22 11:31:52;;;;;;;3.85;0.70;;;18.00;99.90;;;;;;5034319;28;20137;-47
2022/07/22 11:34:20;;;;;;;3.28;0.75;;;18.00;99.90;;;;;;5034653;28;20046;-46
2022/07/22 11:36:46;;;;;;;3.22;0.60;;;18.10;99.90;;;;;;5049683;28;20104;-46
2022/07/22 11:39:14;;;;;;;5.40;0.80;;;18.30;99.90;;;;;;5034191;28;20501;-46
2022/07/22 11:41:40;;;;;;;2.22;0.80;;;18.50;99.90;;;;;;5034500;28;20041;-46
2022/07/22 11:44:07;;;;;;;4.28;0.70;;;18.20;99.90;;;;;;5034089;28;20128;-46
2022/07/22 11:46:41;;;;;;;1.48;0.70;;;18.30;99.90;;;;;;5034405;28;20042;-46
2022/07/22 11:49:08;;;;;;;2.40;0.60;;;18.60;99.90;;;;;;5034322;28;20041;-50
2022/07/22 11:51:36;;;;;;;2.75;0.70;;;18.50;99.90;;;;;;5034281;28;20045;-49
2022/07/22 11:54:03;;;;;;;1.80;0.63;;;18.70;99.90;;;;;;5034157;28;20116;-49
2022/07/22 11:56:29;;;;;;;4.28;1.00;;;18.80;99.90;;;;;;5034273;28;20034;-46
2022/07/22 11:58:56;;;;;;;1.83;0.80;;;18.60;99.90;;;;;;5034069;28;20041;-46
2022/07/22 12:01:27;;;;;;;3.58;0.80;;;18.70;99.90;;;;;;5034185;28;20041;-48
2022/07/22 12:04:05;;;;;;;2.43;0.83;;;18.80;99.90;;;;;;5034141;28;20390;-49
2022/07/22 12:06:36;;;;;;;5.13;0.80;;;18.80;99.90;;;;;;5034068;28;20103;-51
2022/07/22 12:09:11;;;;;;;5.47;0.90;;;18.70;99.90;;;;;;5033870;28;20037;-49
2022/07/22 12:11:40;;;;;;;2.15;0.85;;;18.70;99.90;;;;;;5033780;28;20047;-49
2022/07/22 12:14:11;;;;;;;2.90;0.63;;;18.70;99.90;;;;;;5033576;28;20037;-50
2022/07/22 12:16:38;;;;;;;3.50;0.70;;;18.80;99.90;;;;;;5033433;28;20482;-45
2022/07/22 12:19:10;;;;;;;2.90;1.13;;;19.00;99.90;;;;;;5033400;28;20091;-45
2022/07/22 12:21:57;;;;;;;4.85;0.75;;;19.10;99.90;;;;;;5050220;28;20045;-46
2022/07/22 12:24:40;;;;;;;2.35;0.65;;;18.90;99.90;;;;;;5053231;28;20060;-46
2022/07/22 12:27:09;;;;;;;2.88;0.90;;;18.90;99.90;;;;;;5053298;28;20069;-45
2022/07/22 12:29:37;;;;;;;3.13;1.00;;;18.80;99.90;;;;;;5051589;28;20049;-45
2022/07/22 12:32:08;;;;;;;3.55;1.00;;;18.70;99.90;;;;;;5053383;28;20477;-46
2022/07/22 12:34:42;;;;;;;3.63;0.90;;;18.90;99.90;;;;;;5053372;28;20049;-47
2022/07/22 12:37:21;;;;;;;6.18;0.80;;;18.90;99.90;;;;;;5053243;28;20076;-46
2022/07/22 12:39:53;;;;;;;4.43;1.17;;;18.80;99.90;;;;;;5053107;28;20068;-50
2022/07/22 12:42:19;;;;;;;4.55;1.15;;;18.60;99.90;;;;;;5053292;28;20373;-47
2022/07/22 12:45:14;;;;;;;4.15;1.08;;;18.50;99.90;;;;;;5053139;28;20385;-45